Time,TemperatureF,DewpointF,PressureIn,WindDirection,WindDirectionDegrees,WindSpeedMPH,WindSpeedGustMPH,Humidity,HourlyPrecipIn,Conditions,Clouds,dailyrainin,SoftwareType,DateUTC
2013-08-09 00:03:00,70.1,66.7,30.02,ENE,66,0.0,0.0,89,0.00,,,-99.99,Meteorologica,2013-08-09 05:03:00,
2013-08-09 00:08:00,70.0,66.6,30.02,ENE,66,0.0,0.0,89,0.00,,,-99.99,Meteorologica,2013-08-09 05:08:00,
2013-08-09 00:13:00,69.9,66.7,30.02,ENE,66,0.0,0.0,89,0.00,,,-99.99,Meteorologica,2013-08-09 05:13:00,
2013-08-09 00:18:00,69.9,66.8,30.02,ENE,66,0.0,0.0,90,0.00,,,-99.99,Meteorologica,2013-08-09 05:18:00,
2013-08-09 00:23:00,69.8,66.8,30.02,ENE,66,0.0,0.0,90,0.00,,,-99.99,Meteorologica,2013-08-09 05:23:00,
2013-08-09 00:28:00,69.7,66.7,30.02,ENE,66,0.0,0.0,90,0.00,,,-99.99,Meteorologica,2013-08-09 05:28:00,
2013-08-09 00:34:00,69.6,66.5,30.02,ENE,66,0.0,0.0,90,0.00,,,-99.99,Meteorologica,2013-08-09 05:34:00,
2013-08-09 00:39:00,69.5,66.5,30.01,ENE,66,0.0,0.0,90,0.00,,,-99.99,Meteorologica,2013-08-09 05:39:00,
2013-08-09 00:44:00,69.4,66.4,30.02,ENE,66,0.0,0.0,90,0.00,,,-99.99,Meteorologica,2013-08-09 05:44:00,
2013-08-09 00:49:00,69.4,66.5,30.02,ENE,66,0.0,0.0,90,0.00,,,-99.99,Meteorologica,2013-08-09 05:49:00,
2013-08-09 00:54:00,69.5,66.6,30.03,ENE,66,0.0,0.0,90,0.00,,,-99.99,Meteorologica,2013-08-09 05:54:00,
2013-08-09 00:59:00,69.4,66.5,30.03,ENE,66,0.0,0.0,90,0.00,,,-99.99,Meteorologica,2013-08-09 05:59:00,
2013-08-09 01:04:00,69.4,66.6,30.03,ENE,66,0.0,0.0,90,0.00,,,-99.99,Meteorologica,2013-08-09 06:04:00,
2013-08-09 01:09:00,69.3,66.6,30.03,ENE,66,0.0,0.0,90,0.00,,,-99.99,Meteorologica,2013-08-09 06:09:00,
2013-08-09 01:14:00,69.4,66.6,30.03,ENE,66,0.0,0.0,90,0.00,,,-99.99,Meteorologica,2013-08-09 06:14:00,
2013-08-09 01:19:00,69.4,66.6,30.02,ENE,66,0.0,0.0,90,0.00,,,-99.99,Meteorologica,2013-08-09 06:19:00,
2013-08-09 01:24:00,69.5,66.6,30.02,ENE,66,0.0,0.0,90,0.00,,,-99.99,Meteorologica,2013-08-09 06:24:00,
2013-08-09 01:29:00,69.5,66.6,30.02,ENE,66,0.0,0.0,90,0.00,,,-99.99,Meteorologica,2013-08-09 06:29:00,
2013-08-09 01:34:00,69.5,66.6,30.01,ENE,66,0.0,0.0,90,0.00,,,-99.99,Meteorologica,2013-08-09 06:34:00,
2013-08-09 01:39:00,69.6,66.7,30.01,ENE,66,0.0,0.0,90,0.00,,,-99.99,Meteorologica,2013-08-09 06:39:00,
2013-08-09 01:44:00,69.5,66.7,30.01,ENE,66,0.0,0.0,90,0.00,,,-99.99,Meteorologica,2013-08-09 06:44:00,
2013-08-09 01:49:00,69.5,66.7,30.02,ENE,66,0.0,0.0,90,0.00,,,-99.99,Meteorologica,2013-08-09 06:49:00,
2013-08-09 01:54:00,69.5,66.7,30.02,ENE,66,0.0,0.0,90,0.00,,,-99.99,Meteorologica,2013-08-09 06:54:00,
2013-08-09 01:59:00,69.4,66.6,30.02,ENE,66,0.0,0.0,91,0.00,,,-99.99,Meteorologica,2013-08-09 06:59:00,
2013-08-09 02:04:00,69.4,66.6,30.02,ENE,66,0.0,0.0,91,0.00,,,-99.99,Meteorologica,2013-08-09 07:04:00,
2013-08-09 02:09:00,69.3,66.6,30.02,ENE,66,0.0,0.0,91,0.00,,,-99.99,Meteorologica,2013-08-09 07:09:00,
2013-08-09 02:14:00,69.2,66.5,30.02,ENE,66,0.0,0.0,91,0.00,,,-99.99,Meteorologica,2013-08-09 07:14:00,
2013-08-09 02:19:00,69.1,66.4,30.02,ENE,66,0.0,0.0,91,0.00,,,-99.99,Meteorologica,2013-08-09 07:19:00,
2013-08-09 02:24:00,69.1,66.4,30.02,ENE,66,0.0,0.0,91,0.00,,,-99.99,Meteorologica,2013-08-09 07:24:00,
2013-08-09 02:29:00,69.0,66.3,30.02,ENE,66,0.0,0.0,91,0.00,,,-99.99,Meteorologica,2013-08-09 07:29:00,
2013-08-09 02:34:00,69.0,66.3,30.03,ENE,66,0.0,0.0,91,0.00,,,-99.99,Meteorologica,2013-08-09 07:34:00,
2013-08-09 02:39:00,69.0,66.3,30.03,ENE,66,0.0,0.0,91,0.00,,,-99.99,Meteorologica,2013-08-09 07:39:00,
2013-08-09 02:44:00,68.9,66.2,30.02,ENE,66,0.0,0.0,91,0.00,,,-99.99,Meteorologica,2013-08-09 07:44:00,
2013-08-09 02:49:00,68.8,66.2,30.02,ENE,66,0.0,0.0,91,0.00,,,-99.99,Meteorologica,2013-08-09 07:49:00,
2013-08-09 02:54:00,68.8,66.2,30.02,ENE,66,0.0,0.0,91,0.00,,,-99.99,Meteorologica,2013-08-09 07:54:00,
2013-08-09 02:59:00,68.8,66.2,30.02,ENE,66,0.0,0.0,91,0.00,,,-99.99,Meteorologica,2013-08-09 07:59:00,
2013-08-09 03:04:00,68.7,66.1,30.02,ENE,66,0.0,0.0,91,0.00,,,-99.99,Meteorologica,2013-08-09 08:04:00,
2013-08-09 03:09:00,68.7,66.1,30.02,ENE,66,0.0,0.0,91,0.00,,,-99.99,Meteorologica,2013-08-09 08:09:00,
2013-08-09 03:14:00,68.7,66.1,30.02,ENE,66,0.0,0.0,91,0.00,,,-99.99,Meteorologica,2013-08-09 08:14:00,
2013-08-09 03:19:00,68.6,66.0,30.03,ENE,66,0.0,0.0,91,0.00,,,-99.99,Meteorologica,2013-08-09 08:19:00,
2013-08-09 03:24:00,68.7,66.1,30.03,ENE,66,0.0,0.0,91,0.00,,,-99.99,Meteorologica,2013-08-09 08:24:00,
2013-08-09 03:29:00,68.6,66.0,30.03,ENE,66,0.0,0.0,91,0.00,,,-99.99,Meteorologica,2013-08-09 08:29:00,
2013-08-09 03:34:00,68.6,66.1,30.03,ENE,66,0.0,0.0,91,0.00,,,-99.99,Meteorologica,2013-08-09 08:34:00,
2013-08-09 03:39:00,68.6,66.1,30.03,ENE,66,0.0,0.0,91,0.00,,,-99.99,Meteorologica,2013-08-09 08:39:00,
2013-08-09 03:44:00,68.4,65.9,30.02,ENE,66,0.0,0.0,91,0.00,,,-99.99,Meteorologica,2013-08-09 08:44:00,
2013-08-09 03:49:00,68.4,65.9,30.03,ENE,66,0.0,0.0,91,0.00,,,-99.99,Meteorologica,2013-08-09 08:49:00,
2013-08-09 03:54:00,68.3,65.8,30.02,ENE,66,0.0,0.0,91,0.00,,,-99.99,Meteorologica,2013-08-09 08:54:00,
2013-08-09 03:59:00,68.3,65.8,30.02,ENE,66,0.0,0.0,91,0.00,,,-99.99,Meteorologica,2013-08-09 08:59:00,
2013-08-09 04:04:00,68.2,65.7,30.03,ENE,66,0.0,0.0,91,0.00,,,-99.99,Meteorologica,2013-08-09 09:04:00,
2013-08-09 04:09:00,68.2,65.8,30.02,ENE,66,0.0,0.0,92,0.00,,,-99.99,Meteorologica,2013-08-09 09:09:00,
2013-08-09 04:14:00,68.1,65.7,30.03,ENE,66,0.0,0.0,92,0.00,,,-99.99,Meteorologica,2013-08-09 09:14:00,
2013-08-09 04:19:00,68.1,65.7,30.03,ENE,66,0.0,0.0,92,0.00,,,-99.99,Meteorologica,2013-08-09 09:19:00,
2013-08-09 04:25:00,68.0,65.6,30.03,ENE,66,0.0,0.0,92,0.00,,,-99.99,Meteorologica,2013-08-09 09:25:00,
2013-08-09 04:30:00,68.0,65.6,30.02,ENE,66,0.0,0.0,92,0.00,,,-99.99,Meteorologica,2013-08-09 09:30:00,
2013-08-09 04:35:00,68.0,65.7,30.02,ENE,66,0.0,0.0,92,0.00,,,-99.99,Meteorologica,2013-08-09 09:35:00,
2013-08-09 04:40:00,68.0,65.7,30.03,ENE,66,0.0,0.0,92,0.00,,,-99.99,Meteorologica,2013-08-09 09:40:00,
2013-08-09 04:45:00,67.9,65.6,30.03,ENE,66,0.0,0.0,92,0.00,,,-99.99,Meteorologica,2013-08-09 09:45:00,
2013-08-09 04:50:00,67.9,65.6,30.03,ENE,66,0.0,0.0,92,0.00,,,-99.99,Meteorologica,2013-08-09 09:50:00,
2013-08-09 04:55:00,67.8,65.5,30.03,ENE,66,0.0,0.0,92,0.00,,,-99.99,Meteorologica,2013-08-09 09:55:00,
2013-08-09 05:00:00,67.7,65.4,30.02,ENE,66,0.0,0.0,92,0.00,,,-99.99,Meteorologica,2013-08-09 10:00:00,
2013-08-09 05:05:00,67.5,65.2,30.03,ENE,66,0.0,0.0,92,0.00,,,-99.99,Meteorologica,2013-08-09 10:05:00,
2013-08-09 05:10:00,67.3,65.1,30.03,ENE,66,0.0,0.0,92,0.00,,,-99.99,Meteorologica,2013-08-09 10:10:00,
2013-08-09 05:15:00,67.2,65.0,30.03,ENE,66,0.0,0.0,92,0.00,,,-99.99,Meteorologica,2013-08-09 10:15:00,
2013-08-09 05:20:00,67.1,64.9,30.02,ENE,66,0.0,0.0,92,0.00,,,-99.99,Meteorologica,2013-08-09 10:20:00,
2013-08-09 05:25:00,67.0,64.8,30.02,ENE,66,0.0,0.0,92,0.00,,,-99.99,Meteorologica,2013-08-09 10:25:00,
2013-08-09 05:30:00,67.0,64.8,30.02,ENE,66,0.0,0.0,92,0.00,,,-99.99,Meteorologica,2013-08-09 10:30:00,
2013-08-09 05:35:00,66.9,64.7,30.03,ENE,66,0.0,0.0,92,0.00,,,-99.99,Meteorologica,2013-08-09 10:35:00,
2013-08-09 05:40:00,66.8,64.6,30.02,ENE,66,0.0,0.0,92,0.00,,,-99.99,Meteorologica,2013-08-09 10:40:00,
2013-08-09 05:45:00,66.8,64.6,30.02,ENE,66,0.0,0.0,92,0.00,,,-99.99,Meteorologica,2013-08-09 10:45:00,
2013-08-09 05:50:00,66.7,64.5,30.02,ENE,66,0.0,0.0,92,0.00,,,-99.99,Meteorologica,2013-08-09 10:50:00,
2013-08-09 05:55:00,66.7,64.5,30.02,ENE,66,0.0,0.0,92,0.00,,,-99.99,Meteorologica,2013-08-09 10:55:00,
2013-08-09 06:00:00,66.6,64.4,30.02,ENE,66,0.0,0.0,92,0.00,,,-99.99,Meteorologica,2013-08-09 11:00:00,
2013-08-09 06:05:00,66.4,64.2,30.03,ENE,66,0.0,0.0,92,0.00,,,-99.99,Meteorologica,2013-08-09 11:05:00,
2013-08-09 06:10:00,66.3,64.1,30.03,ENE,66,0.0,0.0,92,0.00,,,-99.99,Meteorologica,2013-08-09 11:10:00,
2013-08-09 06:15:00,66.2,64.0,30.02,ENE,66,0.0,0.0,92,0.00,,,-99.99,Meteorologica,2013-08-09 11:15:00,
2013-08-09 06:20:00,66.2,64.0,30.03,ENE,66,0.0,0.0,92,0.00,,,-99.99,Meteorologica,2013-08-09 11:20:00,
2013-08-09 06:25:00,66.1,64.0,30.03,ENE,66,0.0,0.0,92,0.00,,,-99.99,Meteorologica,2013-08-09 11:25:00,
2013-08-09 06:30:00,66.0,63.9,30.03,ENE,66,0.0,0.0,92,0.00,,,-99.99,Meteorologica,2013-08-09 11:30:00,
2013-08-09 06:35:00,65.9,63.8,30.03,ENE,66,0.0,0.0,92,0.00,,,-99.99,Meteorologica,2013-08-09 11:35:00,
2013-08-09 06:40:00,65.9,63.8,30.03,ENE,66,0.0,0.0,92,0.00,,,-99.99,Meteorologica,2013-08-09 11:40:00,
2013-08-09 06:45:00,65.9,63.8,30.03,ENE,66,0.0,0.0,93,0.00,,,-99.99,Meteorologica,2013-08-09 11:45:00,
2013-08-09 06:50:00,65.8,63.7,30.03,ENE,66,0.0,0.0,93,0.00,,,-99.99,Meteorologica,2013-08-09 11:50:00,
2013-08-09 06:55:00,65.8,63.7,30.04,ENE,66,0.0,0.0,93,0.00,,,-99.99,Meteorologica,2013-08-09 11:55:00,
2013-08-09 07:00:00,65.8,63.7,30.04,ENE,66,0.0,0.0,93,0.00,,,-99.99,Meteorologica,2013-08-09 12:00:00,
2013-08-09 07:05:00,65.8,63.7,30.04,ENE,66,0.0,0.0,93,0.00,,,-99.99,Meteorologica,2013-08-09 12:05:00,
2013-08-09 07:10:00,65.7,63.7,30.04,ENE,66,0.0,0.0,93,0.00,,,-99.99,Meteorologica,2013-08-09 12:10:00,
2013-08-09 07:15:00,65.8,63.8,30.04,ENE,66,0.0,0.0,93,0.00,,,-99.99,Meteorologica,2013-08-09 12:15:00,
2013-08-09 07:20:00,65.8,63.8,30.03,ENE,66,0.0,0.0,93,0.00,,,-99.99,Meteorologica,2013-08-09 12:20:00,
2013-08-09 07:25:00,65.8,63.8,30.04,ENE,66,0.0,0.0,93,0.00,,,-99.99,Meteorologica,2013-08-09 12:25:00,
2013-08-09 07:30:00,65.9,63.9,30.03,ENE,66,0.0,0.0,93,0.00,,,-99.99,Meteorologica,2013-08-09 12:30:00,
2013-08-09 07:35:00,66.0,64.0,30.03,ENE,66,0.0,0.0,93,0.00,,,-99.99,Meteorologica,2013-08-09 12:35:00,
2013-08-09 07:40:00,66.1,64.1,30.03,ENE,66,0.0,0.0,93,0.00,,,-99.99,Meteorologica,2013-08-09 12:40:00,
2013-08-09 07:45:00,66.2,64.2,30.03,ENE,66,0.0,0.0,93,0.00,,,-99.99,Meteorologica,2013-08-09 12:45:00,
2013-08-09 07:51:00,66.4,64.4,30.03,ENE,66,0.0,0.0,93,0.00,,,-99.99,Meteorologica,2013-08-09 12:51:00,
2013-08-09 07:56:00,66.4,64.4,30.03,ENE,66,0.0,0.0,93,0.00,,,-99.99,Meteorologica,2013-08-09 12:56:00,
2013-08-09 08:01:00,66.6,64.6,30.04,ENE,66,0.0,0.0,93,0.00,,,-99.99,Meteorologica,2013-08-09 13:01:00,
2013-08-09 08:06:00,66.7,64.7,30.03,ENE,66,0.0,0.0,93,0.00,,,-99.99,Meteorologica,2013-08-09 13:06:00,
2013-08-09 08:11:00,66.8,64.8,30.04,ENE,66,0.0,0.0,93,0.00,,,-99.99,Meteorologica,2013-08-09 13:11:00,
2013-08-09 08:16:00,66.9,64.9,30.04,ENE,66,0.0,0.0,93,0.00,,,-99.99,Meteorologica,2013-08-09 13:16:00,
2013-08-09 08:21:00,67.0,65.0,30.05,ENE,66,0.0,0.0,93,0.00,,,-99.99,Meteorologica,2013-08-09 13:21:00,
2013-08-09 08:26:00,67.2,65.2,30.05,ENE,66,0.0,0.0,93,0.00,,,-99.99,Meteorologica,2013-08-09 13:26:00,
2013-08-09 08:31:00,67.4,65.4,30.04,ENE,66,0.0,0.0,93,0.00,,,-99.99,Meteorologica,2013-08-09 13:31:00,
2013-08-09 08:36:00,67.8,65.8,30.06,ENE,66,0.0,0.0,93,0.00,,,-99.99,Meteorologica,2013-08-09 13:36:00,
2013-08-09 08:41:00,68.3,66.2,30.06,ENE,66,0.0,0.0,93,0.00,,,-99.99,Meteorologica,2013-08-09 13:41:00,
2013-08-09 08:46:00,68.4,66.2,30.06,ENE,66,0.0,0.0,92,0.00,,,-99.99,Meteorologica,2013-08-09 13:46:00,
2013-08-09 08:51:00,69.0,66.7,30.06,ENE,66,0.0,0.0,92,0.00,,,-99.99,Meteorologica,2013-08-09 13:51:00,
2013-08-09 08:56:00,69.5,67.0,30.06,NNE,28,0.0,0.0,92,0.00,,,-99.99,Meteorologica,2013-08-09 13:56:00,
2013-08-09 09:01:00,70.3,67.6,30.06,NE,55,0.0,0.0,91,0.00,,,-99.99,Meteorologica,2013-08-09 14:01:00,
2013-08-09 09:06:00,70.9,67.9,30.06,NE,40,1.3,3.4,90,0.00,,,-99.99,Meteorologica,2013-08-09 14:06:00,
2013-08-09 09:11:00,71.5,68.4,30.07,NE,40,0.0,0.0,89,0.00,,,-99.99,Meteorologica,2013-08-09 14:11:00,
2013-08-09 09:16:00,72.1,68.2,30.06,ENE,71,0.7,3.5,87,0.00,,,-99.99,Meteorologica,2013-08-09 14:16:00,
2013-08-09 09:21:00,72.6,68.1,30.06,NE,47,1.4,5.9,85,0.00,,,-99.99,Meteorologica,2013-08-09 14:21:00,
2013-08-09 09:26:00,73.0,68.2,30.06,NE,47,0.0,0.0,84,0.00,,,-99.99,Meteorologica,2013-08-09 14:26:00,
2013-08-09 09:31:00,73.1,68.4,30.06,NE,49,0.0,4.6,85,0.00,,,-99.99,Meteorologica,2013-08-09 14:31:00,
2013-08-09 09:36:00,73.3,68.5,30.07,NE,49,0.0,0.0,84,0.00,,,-99.99,Meteorologica,2013-08-09 14:36:00,
2013-08-09 09:41:00,73.6,68.5,30.07,ENE,76,4.0,7.0,83,0.00,,,-99.99,Meteorologica,2013-08-09 14:41:00,
2013-08-09 09:46:00,74.0,68.2,30.07,ENE,64,6.6,10.5,81,0.00,,,-99.99,Meteorologica,2013-08-09 14:46:00,
2013-08-09 09:51:00,74.5,68.3,30.07,North,2,0.6,2.7,80,0.00,,,-99.99,Meteorologica,2013-08-09 14:51:00,
2013-08-09 09:56:00,74.8,68.8,30.07,East,99,2.0,6.4,81,0.00,,,-99.99,Meteorologica,2013-08-09 14:56:00,
2013-08-09 10:01:00,75.2,68.4,30.07,NE,56,3.7,8.1,79,0.00,,,-99.99,Meteorologica,2013-08-09 15:01:00,
2013-08-09 10:06:00,75.3,68.8,30.07,NNE,25,0.0,0.0,80,0.00,,,-99.99,Meteorologica,2013-08-09 15:06:00,
2013-08-09 10:11:00,75.5,68.6,30.07,ENE,73,4.4,8.7,79,0.00,,,-99.99,Meteorologica,2013-08-09 15:11:00,
2013-08-09 10:16:00,75.7,68.8,30.08,NE,46,0.5,3.5,78,0.00,,,-99.99,Meteorologica,2013-08-09 15:16:00,
2013-08-09 10:21:00,75.8,68.5,30.08,NE,46,2.8,4.7,77,0.00,,,-99.99,Meteorologica,2013-08-09 15:21:00,
2013-08-09 10:26:00,76.1,68.9,30.08,NNE,22,0.1,6.3,78,0.00,,,-99.99,Meteorologica,2013-08-09 15:26:00,
2013-08-09 10:31:00,76.5,68.9,30.08,NE,36,1.8,6.1,76,0.00,,,-99.99,Meteorologica,2013-08-09 15:31:00,
2013-08-09 10:36:00,76.7,68.9,30.08,ENE,67,5.5,8.4,76,0.00,,,-99.99,Meteorologica,2013-08-09 15:36:00,
2013-08-09 10:41:00,76.7,69.1,30.08,ENE,59,0.0,0.0,77,0.00,,,-99.99,Meteorologica,2013-08-09 15:41:00,
2013-08-09 10:46:00,76.8,69.0,30.08,ENE,59,0.0,0.0,76,0.00,,,-99.99,Meteorologica,2013-08-09 15:46:00,
2013-08-09 10:51:00,76.9,69.1,30.08,ENE,77,1.9,5.3,76,0.00,,,-99.99,Meteorologica,2013-08-09 15:51:00,
2013-08-09 10:56:00,76.9,68.6,30.08,NNE,14,1.2,3.1,75,0.00,,,-99.99,Meteorologica,2013-08-09 15:56:00,
2013-08-09 11:01:00,77.0,68.7,30.09,NNE,14,0.0,0.0,75,0.00,,,-99.99,Meteorologica,2013-08-09 16:01:00,
2013-08-09 11:06:00,77.2,68.6,30.08,NNE,14,0.0,0.0,74,0.00,,,-99.99,Meteorologica,2013-08-09 16:06:00,
2013-08-09 11:11:00,77.7,69.5,30.08,NNE,14,0.0,0.0,74,0.00,,,-99.99,Meteorologica,2013-08-09 16:11:00,
2013-08-09 11:16:00,77.8,67.9,30.08,NNE,14,0.0,0.0,71,0.00,,,-99.99,Meteorologica,2013-08-09 16:16:00,
2013-08-09 11:21:00,78.1,69.5,30.08,NNE,14,0.0,0.0,74,0.00,,,-99.99,Meteorologica,2013-08-09 16:21:00,
2013-08-09 11:26:00,78.3,68.2,30.08,NE,47,0.0,0.0,70,0.00,,,-99.99,Meteorologica,2013-08-09 16:26:00,
2013-08-09 11:31:00,78.4,68.3,30.08,NE,47,0.0,0.0,70,0.00,,,-99.99,Meteorologica,2013-08-09 16:31:00,
2013-08-09 11:36:00,78.4,68.5,30.08,NE,55,0.1,4.3,71,0.00,,,-99.99,Meteorologica,2013-08-09 16:36:00,
2013-08-09 11:41:00,78.8,68.4,30.08,NNW,332,0.9,2.4,70,0.00,,,-99.99,Meteorologica,2013-08-09 16:41:00,
2013-08-09 11:47:00,78.8,68.7,30.08,NNW,328,0.0,0.0,70,0.00,,,-99.99,Meteorologica,2013-08-09 16:47:00,
2013-08-09 11:52:00,79.1,68.7,30.08,NNW,328,0.0,0.0,70,0.00,,,-99.99,Meteorologica,2013-08-09 16:52:00,
2013-08-09 11:57:00,79.1,68.2,30.08,NNW,328,0.0,0.0,68,0.00,,,-99.99,Meteorologica,2013-08-09 16:57:00,
2013-08-09 12:02:00,79.3,69.0,30.08,NNW,328,0.0,0.0,70,0.00,,,-99.99,Meteorologica,2013-08-09 17:02:00,
2013-08-09 12:08:00,79.2,68.3,30.07,NNW,328,0.0,0.0,68,0.00,,,-99.99,Meteorologica,2013-08-09 17:08:00,
2013-08-09 12:13:00,79.1,68.9,30.08,NNW,328,0.0,0.0,70,0.00,,,-99.99,Meteorologica,2013-08-09 17:13:00,
2013-08-09 12:18:00,79.0,69.0,30.07,NNW,328,0.0,0.0,70,0.00,,,-99.99,Meteorologica,2013-08-09 17:18:00,
2013-08-09 12:23:00,79.1,68.7,30.08,NNW,328,0.0,0.0,70,0.00,,,-99.99,Meteorologica,2013-08-09 17:23:00,
2013-08-09 12:28:00,79.0,68.5,30.08,NNW,328,0.0,0.0,69,0.00,,,-99.99,Meteorologica,2013-08-09 17:28:00,
2013-08-09 12:33:00,79.3,68.7,30.07,NNW,328,0.0,0.0,69,0.00,,,-99.99,Meteorologica,2013-08-09 17:33:00,
2013-08-09 12:38:00,79.5,68.8,30.08,NNW,328,0.0,0.0,69,0.00,,,-99.99,Meteorologica,2013-08-09 17:38:00,
2013-08-09 12:44:00,79.8,67.3,30.07,NE,36,0.1,0.0,65,0.00,,,-99.99,Meteorologica,2013-08-09 17:44:00,
2013-08-09 12:49:00,80.1,67.9,30.08,NE,36,0.0,0.0,65,0.00,,,-99.99,Meteorologica,2013-08-09 17:49:00,
2013-08-09 12:54:00,80.1,68.4,30.07,NE,36,0.0,0.0,67,0.00,,,-99.99,Meteorologica,2013-08-09 17:54:00,
2013-08-09 12:59:00,80.1,65.9,30.08,ENE,67,1.6,5.8,61,0.00,,,-99.99,Meteorologica,2013-08-09 17:59:00,
2013-08-09 13:04:00,80.4,67.2,30.08,East,86,0.0,0.0,63,0.00,,,-99.99,Meteorologica,2013-08-09 18:04:00,
2013-08-09 13:09:00,80.3,65.7,30.08,NE,39,0.0,0.0,60,0.00,,,-99.99,Meteorologica,2013-08-09 18:09:00,
2013-08-09 13:14:00,80.3,66.7,30.08,East,81,0.0,0.0,62,0.00,,,-99.99,Meteorologica,2013-08-09 18:14:00,
2013-08-09 13:19:00,80.5,66.4,30.08,NNW,347,0.0,0.0,62,0.00,,,-99.99,Meteorologica,2013-08-09 18:19:00,
2013-08-09 13:24:00,80.7,66.6,30.08,NE,55,4.9,4.9,60,0.00,,,-99.99,Meteorologica,2013-08-09 18:24:00,
2013-08-09 13:29:00,81.0,65.0,30.08,NE,37,1.9,3.2,57,0.00,,,-99.99,Meteorologica,2013-08-09 18:29:00,
2013-08-09 13:34:00,81.2,67.0,30.08,NE,52,1.9,6.3,61,0.00,,,-99.99,Meteorologica,2013-08-09 18:34:00,
2013-08-09 13:39:00,81.3,66.3,30.08,NE,38,0.3,0.0,60,0.00,,,-99.99,Meteorologica,2013-08-09 18:39:00,
2013-08-09 13:44:00,80.9,65.9,30.08,NE,38,0.0,0.0,59,0.00,,,-99.99,Meteorologica,2013-08-09 18:44:00,
2013-08-09 13:49:00,80.7,66.3,30.08,NE,38,0.0,0.0,61,0.00,,,-99.99,Meteorologica,2013-08-09 18:49:00,
2013-08-09 13:54:00,80.4,66.1,30.07,NE,38,0.0,0.0,61,0.00,,,-99.99,Meteorologica,2013-08-09 18:54:00,
2013-08-09 13:59:00,80.5,66.4,30.07,NE,38,0.0,0.0,61,0.00,,,-99.99,Meteorologica,2013-08-09 18:59:00,
2013-08-09 14:04:00,80.6,66.9,30.08,NW,326,0.8,0.0,62,0.00,,,-99.99,Meteorologica,2013-08-09 19:04:00,
2013-08-09 14:09:00,80.4,65.5,30.07,North,2,2.3,2.4,60,0.00,,,-99.99,Meteorologica,2013-08-09 19:09:00,
2013-08-09 14:14:00,80.6,65.3,30.07,NE,55,0.2,0.0,59,0.00,,,-99.99,Meteorologica,2013-08-09 19:14:00,
2013-08-09 14:19:00,80.7,65.6,30.07,NE,55,0.0,0.0,59,0.00,,,-99.99,Meteorologica,2013-08-09 19:19:00,
2013-08-09 14:24:00,80.7,66.2,30.07,NE,55,0.0,0.0,60,0.00,,,-99.99,Meteorologica,2013-08-09 19:24:00,
2013-08-09 14:29:00,80.7,65.3,30.08,East,95,0.0,0.0,59,0.00,,,-99.99,Meteorologica,2013-08-09 19:29:00,
2013-08-09 14:34:00,80.4,66.0,30.07,East,95,0.0,0.0,61,0.00,,,-99.99,Meteorologica,2013-08-09 19:34:00,
2013-08-09 14:39:00,80.4,67.1,30.08,East,95,0.0,0.0,63,0.00,,,-99.99,Meteorologica,2013-08-09 19:39:00,
2013-08-09 14:44:00,80.2,66.2,30.07,East,95,0.0,0.0,62,0.00,,,-99.99,Meteorologica,2013-08-09 19:44:00,
2013-08-09 14:49:00,80.4,67.4,30.07,East,95,0.0,0.0,64,0.00,,,-99.99,Meteorologica,2013-08-09 19:49:00,
2013-08-09 14:54:00,80.3,67.4,30.08,East,95,0.0,0.0,64,0.00,,,-99.99,Meteorologica,2013-08-09 19:54:00,
2013-08-09 14:59:00,80.4,67.1,30.07,ENE,57,0.0,0.0,63,0.00,,,-99.99,Meteorologica,2013-08-09 19:59:00,
2013-08-09 15:04:00,80.4,66.6,30.08,ENE,57,0.0,0.0,62,0.00,,,-99.99,Meteorologica,2013-08-09 20:04:00,
2013-08-09 15:09:00,80.4,67.0,30.07,ENE,57,0.0,0.0,63,0.00,,,-99.99,Meteorologica,2013-08-09 20:09:00,
2013-08-09 15:14:00,80.3,67.0,30.07,ENE,57,0.0,0.0,63,0.00,,,-99.99,Meteorologica,2013-08-09 20:14:00,
2013-08-09 15:19:00,80.3,66.8,30.07,ENE,57,0.0,0.0,62,0.00,,,-99.99,Meteorologica,2013-08-09 20:19:00,
2013-08-09 15:24:00,80.3,66.6,30.08,ENE,57,0.0,0.0,62,0.00,,,-99.99,Meteorologica,2013-08-09 20:24:00,
2013-08-09 15:29:00,80.3,67.0,30.08,ENE,57,0.0,0.0,63,0.00,,,-99.99,Meteorologica,2013-08-09 20:29:00,
2013-08-09 15:34:00,80.3,67.4,30.07,ENE,57,0.0,0.0,64,0.00,,,-99.99,Meteorologica,2013-08-09 20:34:00,
2013-08-09 15:39:00,80.2,66.1,30.07,ENE,57,0.0,0.0,61,0.00,,,-99.99,Meteorologica,2013-08-09 20:39:00,
2013-08-09 15:44:00,80.2,66.8,30.07,ENE,57,0.0,0.0,63,0.00,,,-99.99,Meteorologica,2013-08-09 20:44:00,
2013-08-09 15:49:00,80.4,67.9,30.07,ENE,57,0.0,0.0,65,0.00,,,-99.99,Meteorologica,2013-08-09 20:49:00,
2013-08-09 15:54:00,80.3,67.9,30.07,ENE,57,0.0,0.0,65,0.00,,,-99.99,Meteorologica,2013-08-09 20:54:00,
2013-08-09 15:59:00,80.4,67.8,30.07,ENE,57,0.0,0.0,65,0.00,,,-99.99,Meteorologica,2013-08-09 20:59:00,
2013-08-09 16:04:00,80.3,66.7,30.07,ENE,57,0.0,0.0,62,0.00,,,-99.99,Meteorologica,2013-08-09 21:04:00,
2013-08-09 16:09:00,80.5,67.4,30.07,ENE,57,0.0,0.0,63,0.00,,,-99.99,Meteorologica,2013-08-09 21:09:00,
2013-08-09 16:14:00,80.2,67.1,30.07,ENE,57,0.0,0.0,63,0.00,,,-99.99,Meteorologica,2013-08-09 21:14:00,
2013-08-09 16:19:00,80.1,66.3,30.07,ENE,57,0.0,0.0,62,0.00,,,-99.99,Meteorologica,2013-08-09 21:19:00,
2013-08-09 16:24:00,80.2,67.5,30.07,ENE,57,0.0,0.0,64,0.00,,,-99.99,Meteorologica,2013-08-09 21:24:00,
2013-08-09 16:29:00,80.3,66.2,30.07,ENE,57,0.0,0.0,61,0.00,,,-99.99,Meteorologica,2013-08-09 21:29:00,
2013-08-09 16:34:00,80.5,65.2,30.07,ENE,57,0.0,0.0,59,0.00,,,-99.99,Meteorologica,2013-08-09 21:34:00,
2013-08-09 16:39:00,81.0,65.8,30.07,ENE,57,0.0,0.0,59,0.00,,,-99.99,Meteorologica,2013-08-09 21:39:00,
2013-08-09 16:45:00,81.4,66.5,30.07,ENE,57,0.0,0.0,60,0.00,,,-99.99,Meteorologica,2013-08-09 21:45:00,
2013-08-09 16:50:00,81.5,67.3,30.07,South,175,0.0,0.0,61,0.00,,,-99.99,Meteorologica,2013-08-09 21:50:00,
2013-08-09 16:55:00,81.4,67.4,30.07,South,175,0.0,0.0,62,0.00,,,-99.99,Meteorologica,2013-08-09 21:55:00,
2013-08-09 17:00:00,81.2,67.8,30.07,ESE,103,0.0,0.0,63,0.00,,,-99.99,Meteorologica,2013-08-09 22:00:00,
2013-08-09 17:05:00,80.8,66.5,30.07,ESE,103,0.0,0.0,61,0.00,,,-99.99,Meteorologica,2013-08-09 22:05:00,
2013-08-09 17:10:00,80.7,67.3,30.07,SSE,168,0.9,2.9,63,0.00,,,-99.99,Meteorologica,2013-08-09 22:10:00,
2013-08-09 17:15:00,80.5,66.5,30.08,SSE,155,0.0,0.0,61,0.00,,,-99.99,Meteorologica,2013-08-09 22:15:00,
2013-08-09 17:20:00,80.6,67.0,30.07,SSE,155,0.0,0.0,62,0.00,,,-99.99,Meteorologica,2013-08-09 22:20:00,
2013-08-09 17:25:00,80.5,66.7,30.07,SSE,155,0.0,0.0,62,0.00,,,-99.99,Meteorologica,2013-08-09 22:25:00,
2013-08-09 17:30:00,80.5,67.2,30.07,SSE,155,0.0,0.0,63,0.00,,,-99.99,Meteorologica,2013-08-09 22:30:00,
2013-08-09 17:35:00,80.5,66.7,30.07,SSW,196,2.6,4.3,62,0.00,,,-99.99,Meteorologica,2013-08-09 22:35:00,
2013-08-09 17:40:00,80.6,66.9,30.06,SE,128,0.0,0.0,62,0.00,,,-99.99,Meteorologica,2013-08-09 22:40:00,
2013-08-09 17:45:00,81.2,66.0,30.06,SE,145,4.0,5.3,59,0.00,,,-99.99,Meteorologica,2013-08-09 22:45:00,
2013-08-09 17:50:00,81.4,66.1,30.06,SE,145,0.0,0.0,59,0.00,,,-99.99,Meteorologica,2013-08-09 22:50:00,
2013-08-09 17:55:00,81.8,66.8,30.06,SSW,210,2.0,5.7,59,0.00,,,-99.99,Meteorologica,2013-08-09 22:55:00,
2013-08-09 18:00:00,81.7,67.0,30.06,SW,227,1.3,3.3,61,0.00,,,-99.99,Meteorologica,2013-08-09 23:00:00,
2013-08-09 18:05:00,81.4,66.3,30.06,SW,227,0.0,0.0,60,0.00,,,-99.99,Meteorologica,2013-08-09 23:05:00,
2013-08-09 18:10:00,81.5,67.3,30.06,SW,227,0.0,0.0,61,0.00,,,-99.99,Meteorologica,2013-08-09 23:10:00,
2013-08-09 18:15:00,81.6,67.2,30.06,SW,214,1.7,7.6,61,0.00,,,-99.99,Meteorologica,2013-08-09 23:15:00,
2013-08-09 18:20:00,81.9,67.5,30.06,SSE,163,2.0,4.3,61,0.00,,,-99.99,Meteorologica,2013-08-09 23:20:00,
2013-08-09 18:25:00,82.1,67.2,30.06,SSE,163,0.0,0.0,60,0.00,,,-99.99,Meteorologica,2013-08-09 23:25:00,
2013-08-09 18:30:00,82.3,68.2,30.05,SSE,163,0.0,0.0,62,0.00,,,-99.99,Meteorologica,2013-08-09 23:30:00,
2013-08-09 18:35:00,81.7,67.2,30.05,SSE,163,0.0,0.0,61,0.00,,,-99.99,Meteorologica,2013-08-09 23:35:00,
2013-08-09 18:41:00,81.2,67.9,30.05,SSE,163,0.0,0.0,63,0.00,,,-99.99,Meteorologica,2013-08-09 23:41:00,
2013-08-09 18:46:00,81.0,67.7,30.05,SW,221,0.0,5.1,63,0.00,,,-99.99,Meteorologica,2013-08-09 23:46:00,
2013-08-09 18:51:00,81.0,68.2,30.06,ENE,59,1.9,5.3,64,0.00,,,-99.99,Meteorologica,2013-08-09 23:51:00,
2013-08-09 18:56:00,81.1,67.3,30.06,ENE,59,0.0,0.0,62,0.00,,,-99.99,Meteorologica,2013-08-09 23:56:00,
2013-08-09 19:01:00,81.5,67.2,30.06,ENE,59,0.0,0.0,61,0.00,,,-99.99,Meteorologica,2013-08-10 00:01:00,
2013-08-09 19:06:00,81.8,67.2,30.06,ENE,59,0.0,0.0,60,0.00,,,-99.99,Meteorologica,2013-08-10 00:06:00,
2013-08-09 19:11:00,81.6,67.1,30.06,ENE,59,0.0,0.0,61,0.00,,,-99.99,Meteorologica,2013-08-10 00:11:00,
2013-08-09 19:16:00,81.8,67.7,30.06,West,262,0.6,3.2,61,0.00,,,-99.99,Meteorologica,2013-08-10 00:16:00,
2013-08-09 19:21:00,81.5,67.8,30.06,West,262,0.0,0.0,62,0.00,,,-99.99,Meteorologica,2013-08-10 00:21:00,
2013-08-09 19:26:00,81.0,68.7,30.07,West,262,0.0,0.0,65,0.00,,,-99.99,Meteorologica,2013-08-10 00:26:00,
2013-08-09 19:31:00,80.8,67.8,30.06,West,262,0.0,0.0,64,0.00,,,-99.99,Meteorologica,2013-08-10 00:31:00,
2013-08-09 19:36:00,80.8,67.4,30.06,West,262,0.0,0.0,63,0.00,,,-99.99,Meteorologica,2013-08-10 00:36:00,
2013-08-09 19:41:00,81.0,68.0,30.06,West,262,0.0,0.0,64,0.00,,,-99.99,Meteorologica,2013-08-10 00:41:00,
2013-08-09 19:47:00,80.7,68.0,30.07,West,262,0.0,0.0,64,0.00,,,-99.99,Meteorologica,2013-08-10 00:47:00,
2013-08-09 19:52:00,80.5,67.9,30.07,West,262,0.0,0.0,65,0.00,,,-99.99,Meteorologica,2013-08-10 00:52:00,
2013-08-09 19:57:00,80.2,68.2,30.07,West,262,0.0,0.0,66,0.00,,,-99.99,Meteorologica,2013-08-10 00:57:00,
2013-08-09 20:02:00,79.7,68.4,30.07,West,262,0.0,0.0,68,0.00,,,-99.99,Meteorologica,2013-08-10 01:02:00,
2013-08-09 20:07:00,79.0,68.4,30.07,West,262,0.0,0.0,69,0.00,,,-99.99,Meteorologica,2013-08-10 01:07:00,
2013-08-09 20:12:00,78.7,68.5,30.07,West,262,0.0,0.0,70,0.00,,,-99.99,Meteorologica,2013-08-10 01:12:00,
2013-08-09 20:17:00,78.2,68.5,30.07,West,262,0.0,0.0,71,0.00,,,-99.99,Meteorologica,2013-08-10 01:17:00,
2013-08-09 20:22:00,77.8,68.6,30.07,West,262,0.0,0.0,72,0.00,,,-99.99,Meteorologica,2013-08-10 01:22:00,
2013-08-09 20:27:00,77.2,68.4,30.07,West,262,0.0,0.0,73,0.00,,,-99.99,Meteorologica,2013-08-10 01:27:00,
2013-08-09 20:32:00,76.8,68.2,30.07,West,262,0.0,0.0,74,0.00,,,-99.99,Meteorologica,2013-08-10 01:32:00,
2013-08-09 20:37:00,76.4,68.2,30.08,West,262,0.0,0.0,75,0.00,,,-99.99,Meteorologica,2013-08-10 01:37:00,
2013-08-09 20:42:00,76.1,68.3,30.08,West,262,0.0,0.0,76,0.00,,,-99.99,Meteorologica,2013-08-10 01:42:00,
2013-08-09 20:47:00,75.6,68.2,30.08,West,262,0.0,0.0,77,0.00,,,-99.99,Meteorologica,2013-08-10 01:47:00,
2013-08-09 20:52:00,75.2,68.0,30.09,West,262,0.0,0.0,78,0.00,,,-99.99,Meteorologica,2013-08-10 01:52:00,
2013-08-09 20:57:00,75.0,68.3,30.09,West,262,0.0,0.0,79,0.00,,,-99.99,Meteorologica,2013-08-10 01:57:00,
2013-08-09 21:02:00,74.7,68.1,30.09,West,262,0.0,0.0,79,0.00,,,-99.99,Meteorologica,2013-08-10 02:02:00,
2013-08-09 21:07:00,74.5,68.2,30.09,West,262,0.0,0.0,80,0.00,,,-99.99,Meteorologica,2013-08-10 02:07:00,
2013-08-09 21:12:00,74.2,68.1,30.09,West,262,0.0,0.0,81,0.00,,,-99.99,Meteorologica,2013-08-10 02:12:00,
2013-08-09 21:17:00,73.8,67.9,30.09,West,262,0.0,0.0,81,0.00,,,-99.99,Meteorologica,2013-08-10 02:17:00,
2013-08-09 21:22:00,73.5,68.2,30.09,West,262,0.0,0.0,82,0.00,,,-99.99,Meteorologica,2013-08-10 02:22:00,
2013-08-09 21:27:00,73.5,68.1,30.10,West,262,0.0,0.0,83,0.00,,,-99.99,Meteorologica,2013-08-10 02:27:00,
2013-08-09 21:32:00,73.4,68.3,30.10,West,262,0.0,0.0,84,0.00,,,-99.99,Meteorologica,2013-08-10 02:32:00,
2013-08-09 21:37:00,73.3,68.4,30.10,West,262,0.0,0.0,84,0.00,,,-99.99,Meteorologica,2013-08-10 02:37:00,
2013-08-09 21:42:00,73.1,68.2,30.11,West,262,0.0,0.0,84,0.00,,,-99.99,Meteorologica,2013-08-10 02:42:00,
2013-08-09 21:47:00,73.1,68.2,30.11,West,262,0.0,0.0,84,0.00,,,-99.99,Meteorologica,2013-08-10 02:47:00,
2013-08-09 21:52:00,72.9,68.2,30.11,West,262,0.0,0.0,85,0.00,,,-99.99,Meteorologica,2013-08-10 02:52:00,
2013-08-09 21:57:00,72.6,68.1,30.11,West,262,0.0,0.0,85,0.00,,,-99.99,Meteorologica,2013-08-10 02:57:00,
2013-08-09 22:02:00,72.5,68.2,30.11,West,262,0.0,0.0,86,0.00,,,-99.99,Meteorologica,2013-08-10 03:02:00,
2013-08-09 22:07:00,72.4,68.2,30.11,West,262,0.0,0.0,86,0.00,,,-99.99,Meteorologica,2013-08-10 03:07:00,
2013-08-09 22:12:00,72.2,68.2,30.12,West,262,0.0,0.0,87,0.00,,,-99.99,Meteorologica,2013-08-10 03:12:00,
2013-08-09 22:17:00,72.1,68.2,30.11,West,262,0.0,0.0,87,0.00,,,-99.99,Meteorologica,2013-08-10 03:17:00,
2013-08-09 22:22:00,71.9,68.0,30.12,West,262,0.0,0.0,87,0.00,,,-99.99,Meteorologica,2013-08-10 03:22:00,
2013-08-09 22:27:00,71.8,68.4,30.12,West,262,0.0,0.0,89,0.00,,,-99.99,Meteorologica,2013-08-10 03:27:00,
2013-08-09 22:32:00,71.7,68.6,30.12,North,359,0.0,3.1,89,0.00,,,-99.99,Meteorologica,2013-08-10 03:32:00,
2013-08-09 22:37:00,71.5,68.2,30.12,North,359,0.0,0.0,89,0.00,,,-99.99,Meteorologica,2013-08-10 03:37:00,
2013-08-09 22:42:00,71.5,68.1,30.12,North,359,0.0,0.0,89,0.00,,,-99.99,Meteorologica,2013-08-10 03:42:00,
2013-08-09 22:47:00,71.4,68.0,30.12,North,359,0.0,0.0,89,0.00,,,-99.99,Meteorologica,2013-08-10 03:47:00,
2013-08-09 22:52:00,71.2,67.9,30.13,North,359,0.0,0.0,89,0.00,,,-99.99,Meteorologica,2013-08-10 03:52:00,
2013-08-09 22:57:00,71.1,67.9,30.13,North,359,0.0,0.0,89,0.00,,,-99.99,Meteorologica,2013-08-10 03:57:00,
2013-08-09 23:02:00,71.1,67.9,30.13,North,359,0.0,0.0,89,0.00,,,-99.99,Meteorologica,2013-08-10 04:02:00,
2013-08-09 23:03:00,71.1,68.0,30.13,North,359,0.0,0.0,89,0.00,,,-99.99,Meteorologica,2013-08-10 04:03:00,
2013-08-09 23:05:00,71.1,68.0,30.13,North,359,0.0,0.0,90,0.00,,,-99.99,Meteorologica,2013-08-10 04:05:00,
2013-08-09 23:09:00,71.0,67.9,30.13,North,359,0.0,0.0,90,0.00,,,-99.99,Meteorologica,2013-08-10 04:09:00,
2013-08-09 23:14:00,71.0,67.9,30.13,North,359,0.0,0.0,90,0.00,,,-99.99,Meteorologica,2013-08-10 04:14:00,
2013-08-09 23:16:00,70.9,67.9,30.13,North,359,0.0,0.0,90,0.00,,,-99.99,Meteorologica,2013-08-10 04:16:00,
2013-08-09 23:21:00,70.9,67.9,30.14,North,359,0.0,0.0,90,0.00,,,-99.99,Meteorologica,2013-08-10 04:21:00,
2013-08-09 23:26:00,70.8,67.8,30.14,North,359,0.0,0.0,90,0.00,,,-99.99,Meteorologica,2013-08-10 04:26:00,
2013-08-09 23:31:00,70.7,67.7,30.13,North,359,0.0,0.0,90,0.00,,,-99.99,Meteorologica,2013-08-10 04:31:00,
2013-08-09 23:36:00,70.5,67.6,30.14,North,359,0.0,0.0,90,0.00,,,-99.99,Meteorologica,2013-08-10 04:36:00,
2013-08-09 23:41:00,70.4,67.5,30.14,North,359,0.0,0.0,90,0.00,,,-99.99,Meteorologica,2013-08-10 04:41:00,
2013-08-09 23:46:00,70.4,67.5,30.14,North,359,0.0,0.0,90,0.00,,,-99.99,Meteorologica,2013-08-10 04:46:00,
2013-08-09 23:51:00,70.2,67.3,30.14,North,359,0.0,0.0,90,0.00,,,-99.99,Meteorologica,2013-08-10 04:51:00,
2013-08-09 23:56:00,70.1,67.3,30.15,North,359,0.0,0.0,90,0.00,,,-99.99,Meteorologica,2013-08-10 04:56:00,